createdAt,value
2019-03-19T14:43:29.805Z,23.68
2019-03-19T14:43:42.192Z,23.78
2019-03-19T14:43:54.484Z,23.84
2019-03-19T14:44:06.564Z,23.83
2019-03-19T14:44:18.936Z,23.86
2019-03-19T14:46:31.259Z,24.1
2019-03-19T14:48:34.545Z,24.13
2019-03-19T14:50:37.631Z,24.33
2019-03-19T14:52:43.644Z,24
2019-03-19T14:54:47.423Z,24.28
2019-03-19T14:56:50.983Z,24.16
2019-03-19T14:58:54.499Z,24.43
2019-03-19T15:00:57.976Z,24.52
2019-03-19T15:03:01.478Z,24.58
2019-03-19T15:05:05.138Z,24.78
2019-03-19T15:07:08.566Z,24.07
2019-03-19T15:09:12.062Z,23.74
2019-03-19T15:11:15.661Z,23.18
2019-03-19T15:13:19.192Z,23.14
2019-03-19T15:15:23.006Z,23.22
2019-03-19T15:17:29.525Z,23.47
2019-03-19T15:19:33.427Z,23.41
2019-03-19T15:21:36.906Z,23.06
2019-03-19T16:02:30.934Z,24.56
2019-03-19T16:05:43.936Z,24.53
2019-03-19T16:07:47.793Z,24.54
2019-03-19T16:09:51.849Z,24.49
2019-03-19T16:11:55.549Z,24.57
2019-03-19T16:13:58.950Z,24.58
2019-03-19T16:16:02.733Z,24.4
2019-03-19T16:18:07.232Z,24.43
2019-03-19T16:20:10.555Z,24.27
2019-03-19T16:22:13.748Z,24.44
2019-03-19T16:24:17.033Z,24.3
2019-03-19T16:26:20.276Z,24.24
2019-03-19T16:28:23.510Z,24.07
2019-03-19T16:30:26.864Z,24.3
2019-03-19T16:32:32.083Z,24.43
2019-03-19T16:34:36.690Z,24.69
2019-03-19T16:36:40.100Z,24.51
2019-03-19T16:38:43.972Z,24.47
2019-03-19T16:40:47.544Z,23.98
2019-03-19T16:42:50.704Z,23.37
2019-03-19T16:44:53.879Z,23.25
2019-03-19T16:46:57.230Z,23.25
2019-03-19T16:49:00.410Z,23.29
2019-03-19T16:51:03.571Z,23.26
2019-03-19T16:53:06.759Z,23.29
2019-03-19T16:55:09.909Z,23.25
2019-03-19T16:57:13.094Z,23.27
2019-03-19T16:59:16.296Z,23.22
2019-03-19T17:01:19.563Z,23.2
2019-03-19T17:03:22.829Z,23.19
2019-03-19T17:05:26.058Z,23.15
2019-03-19T17:07:29.217Z,23.08
2019-03-19T17:09:32.412Z,23.06
2019-03-19T17:11:35.553Z,23.02
2019-03-19T17:13:38.732Z,22.85
2019-03-19T17:15:41.896Z,22.82
2019-03-19T17:17:45.081Z,22.82
2019-03-19T17:19:48.277Z,22.86
2019-03-19T17:21:51.462Z,22.69
2019-03-19T17:23:54.637Z,22.61
2019-03-19T17:25:57.846Z,22.47
2019-03-19T17:28:01.038Z,22.49
2019-03-19T17:30:04.195Z,22.49
2019-03-19T17:32:12.697Z,22.49
2019-03-19T17:34:16.104Z,22.58
2019-03-19T17:36:19.307Z,22.53
2019-03-19T17:38:22.492Z,22.41
2019-03-19T17:40:25.667Z,22.22
2019-03-19T17:42:28.939Z,22.16
2019-03-19T17:44:32.226Z,22.33
2019-03-19T17:46:35.513Z,22.35
2019-03-19T17:48:38.803Z,22.3
2019-03-19T17:50:42.094Z,22.37
2019-03-19T17:52:45.466Z,22.39
2019-03-19T17:54:48.881Z,22.3
2019-03-19T17:56:52.090Z,22.31
2019-03-19T17:58:55.289Z,22.38
2019-03-19T18:00:58.546Z,22.32
2019-03-19T18:03:01.838Z,22.32
2019-03-19T18:05:05.129Z,22.3
2019-03-19T18:07:08.417Z,22.23
2019-03-19T18:09:11.709Z,22.23
2019-03-19T18:11:15.102Z,22.27
2019-03-19T18:13:18.396Z,22.2
2019-03-19T18:15:21.908Z,22.26
2019-03-19T18:17:25.178Z,22.27
2019-03-19T18:19:28.704Z,22.29
2019-03-19T18:21:32.270Z,22.31
2019-03-19T18:23:35.562Z,22.29
2019-03-19T18:25:38.957Z,22.24
2019-03-19T18:27:42.245Z,22.27
2019-03-19T18:29:45.538Z,22.29
2019-03-19T18:31:48.827Z,22.28
2019-03-19T18:33:52.115Z,22.27
2019-03-19T18:35:56.497Z,22.26
2019-03-19T18:38:00.027Z,22.25
2019-03-19T18:40:03.319Z,22.27
2019-03-19T18:42:06.613Z,22.24
2019-03-19T18:44:09.902Z,22.05
2019-03-19T18:46:14.330Z,22.02
2019-03-19T18:48:17.608Z,21.96
2019-03-19T18:50:20.900Z,21.9
2019-03-19T18:52:24.393Z,23.01
2019-03-19T18:54:27.822Z,23.43
2019-03-19T18:56:31.282Z,23.5
2019-03-19T18:58:35.680Z,23.55
2019-03-19T19:00:38.889Z,23.22
2019-03-19T19:02:49.416Z,22.71
2019-03-19T19:04:53.661Z,22.57
2019-03-19T19:06:57.053Z,22.53
2019-03-19T19:09:00.344Z,22.55
2019-03-19T19:11:03.739Z,22.63
2019-03-19T19:13:07.026Z,22.7
2019-03-19T19:15:10.531Z,22.74
2019-03-19T19:17:13.720Z,22.77
2019-03-19T19:19:16.898Z,22.79
2019-03-19T19:21:20.291Z,22.77
2019-03-19T19:23:23.563Z,22.79
2019-03-19T19:25:26.873Z,22.79
2019-03-19T19:27:30.135Z,22.77
2019-03-19T19:29:33.457Z,22.74
2019-03-19T19:31:36.743Z,22.76
2019-03-19T19:33:40.034Z,22.76
2019-03-19T19:35:43.223Z,22.77
2019-03-19T19:37:46.513Z,22.78
2019-03-19T19:39:49.907Z,22.77
2019-03-19T19:41:53.301Z,22.78
2019-03-19T19:43:56.600Z,22.81
2019-03-19T19:45:59.982Z,22.79
2019-03-19T19:48:03.581Z,22.8
2019-03-19T19:50:07.382Z,22.78
2019-03-19T19:52:10.774Z,22.75
2019-03-19T19:54:14.175Z,22.77
2019-03-19T19:56:17.475Z,22.76
2019-03-19T19:58:20.748Z,22.76
2019-03-19T20:00:24.046Z,22.74
2019-03-19T20:02:27.331Z,22.71
2019-03-19T20:04:30.721Z,22.73
2019-03-19T20:06:34.014Z,22.71
2019-03-19T20:08:37.305Z,22.72
2019-03-19T20:10:40.697Z,22.69
2019-03-19T20:12:43.987Z,22.67
2019-03-19T20:14:47.276Z,22.65
2019-03-19T20:16:50.570Z,22.62
2019-03-19T20:18:53.858Z,22.65
2019-03-19T20:20:57.162Z,22.63
2019-03-19T20:23:00.543Z,22.61
2019-03-19T20:25:03.936Z,22.59
2019-03-19T20:27:07.226Z,22.56
2019-03-19T20:29:10.518Z,22.56
2019-03-19T20:31:13.910Z,22.53
2019-03-19T20:33:24.621Z,22.5
2019-03-19T20:35:28.273Z,22.47
2019-03-19T20:37:31.636Z,22.48
2019-03-19T20:39:35.263Z,22.46
2019-03-19T20:41:38.664Z,22.46
2019-03-19T20:43:41.948Z,22.42
2019-03-19T20:45:46.262Z,22.44
2019-03-19T20:47:49.553Z,22.43
2019-03-19T20:49:52.845Z,22.42
2019-03-19T20:51:56.134Z,22.36
2019-03-19T20:53:59.527Z,22.37
2019-03-19T20:56:02.817Z,22.33
2019-03-19T20:58:06.210Z,22.33
2019-03-19T21:00:09.500Z,22.17
2019-03-19T21:02:12.791Z,22.31
2019-03-19T21:04:17.159Z,22.32
2019-03-19T21:06:20.498Z,22.27
2019-03-19T21:08:23.792Z,22.31
2019-03-19T21:10:27.078Z,22.32
2019-03-19T21:12:31.411Z,22.29
2019-03-19T21:14:34.786Z,22.29
2019-03-19T21:16:38.179Z,22.3
2019-03-19T21:18:41.516Z,22.11
2019-03-19T21:20:45.119Z,22.29
2019-03-19T21:22:48.664Z,22.29
2019-03-19T21:24:52.010Z,22.26
2019-03-19T21:26:55.349Z,22.24
2019-03-19T21:28:58.641Z,22.25
2019-03-19T21:31:01.783Z,22.61
2019-03-19T21:33:05.019Z,23.58
2019-03-19T21:35:08.317Z,23.72
2019-03-19T21:37:11.597Z,23.71
2019-03-19T21:39:14.870Z,23.85
2019-03-19T21:41:18.177Z,23.98
2019-03-19T21:43:21.467Z,24.02
2019-03-19T21:45:24.760Z,24.1
2019-03-19T21:47:28.051Z,24.42
2019-03-19T21:49:31.253Z,24.52
2019-03-19T21:51:34.529Z,24.32
2019-03-19T21:53:37.819Z,24.34
2019-03-19T21:55:41.109Z,24.3
2019-03-19T21:57:44.504Z,24.45
2019-03-19T21:59:47.794Z,24.6
2019-03-19T22:01:51.085Z,24.52
2019-03-19T22:04:02.570Z,24.61
2019-03-19T22:06:06.370Z,24.71
2019-03-19T22:08:09.761Z,24.71
2019-03-19T22:10:13.203Z,24.61
2019-03-19T22:12:17.736Z,24.63
2019-03-19T22:14:20.966Z,24.61
2019-03-19T22:16:24.282Z,24.33
2019-03-19T22:18:27.597Z,25.45
2019-03-19T22:20:31.969Z,25.78
2019-03-19T22:22:36.382Z,25.81
2019-03-19T22:24:39.678Z,25.79
2019-03-19T22:26:44.051Z,25.69
2019-03-19T22:28:47.520Z,25.66
2019-03-19T22:30:50.873Z,25.4
2019-03-19T22:32:56.172Z,25.23
2019-03-19T22:34:59.502Z,25.25
2019-03-19T22:37:02.796Z,25.26
2019-03-19T23:20:48.862Z,24.99
2019-03-19T23:22:52.734Z,24.2
2019-03-19T23:24:56.671Z,23.88
2019-03-19T23:27:00.696Z,23.64
2019-03-19T23:29:04.567Z,23.52
2019-03-19T23:31:08.385Z,23.42
2019-03-19T23:33:12.288Z,23.36
2019-03-19T23:35:16.196Z,23.29
2019-03-19T23:37:20.099Z,23.24
2019-03-19T23:39:25.130Z,23.19
2019-03-19T23:41:29.019Z,23.11
2019-03-19T23:43:32.939Z,23.08
2019-03-19T23:45:36.844Z,23.01
2019-03-19T23:47:40.750Z,22.98
2019-03-19T23:49:44.654Z,22.93
2019-03-19T23:51:48.559Z,22.9
2019-03-19T23:53:52.469Z,22.88
2019-03-19T23:55:56.370Z,22.84
2019-03-19T23:58:00.286Z,22.79
